Terminal Aerodrome Forecast
Issued by NWS

Home | Current Version | Previous Version | Graphics & Text | Print | Product List | Glossary Off
Versions: 1 2 3 4 5 6 7 8 9 10 11 12 13 14 15 16 17 18 19 20 21 22 23 24 25 26 27 28 29 30 31 32 33 34 35 36 37 38

000
FTUS43 KGRB 222330
TAFRHI
TAF
KRHI 222330Z 2300/2324 25004KT P6SM VCTS BKN040CB
      TEMPO 2300/2301 3SM TSRA OVC022CB
     FM230400 VRB03KT P6SM SCT150
     FM230900 VRB03KT 3SM BR SCT030
     FM231100 30004KT 6SM BR BKN007
     FM231500 32006KT P6SM BKN015=

USA.gov is the U.S. government's official web portal to all federal, state and local government web resources and services.